Time;durP1;ratioP1;P1;durP2;ratioP2;P2;SDS_P1;SDS_P2;PMS_P1;PMS_P2;Temp;Humidity;BMP_temperature;BMP_pressure;BME280_temperature;BME280_humidity;BME280_pressure;Samples;Min_cycle;Max_cycle;Signal;HPM_P1;HPM_P2
2021/07/18 00:00:32;;;;;;;5.93;4.20;;;;;;;;;;4686269;30;20037;-81
2021/07/18 00:02:58;;;;;;;5.90;3.67;;;;;;;;;;4693316;30;20403;-81
2021/07/18 00:05:23;;;;;;;5.90;3.88;;;;;;;;;;4681062;30;20040;-81
2021/07/18 00:07:49;;;;;;;6.05;4.15;;;;;;;;;;4696492;30;20528;-81
2021/07/18 00:10:14;;;;;;;7.05;3.88;;;;;;;;;;4692441;30;20519;-81
2021/07/18 00:12:41;;;;;;;5.55;3.55;;;;;;;;;;4689241;30;20065;-81
2021/07/18 00:15:08;;;;;;;6.15;4.05;;;;;;;;;;4672755;30;20506;-81
2021/07/18 00:17:41;;;;;;;6.72;3.72;;;;;;;;;;4689538;30;20033;-82
2021/07/18 00:20:09;;;;;;;6.05;3.97;;;;;;;;;;4687892;30;20034;-82
2021/07/18 00:22:35;;;;;;;6.28;4.50;;;;;;;;;;4701031;30;20048;-82
2021/07/18 00:25:00;;;;;;;7.72;4.65;;;;;;;;;;4700687;30;20045;-82
2021/07/18 00:27:26;;;;;;;6.90;4.43;;;;;;;;;;4693228;30;20061;-82
2021/07/18 00:29:51;;;;;;;5.55;4.22;;;;;;;;;;4687018;30;20104;-82
2021/07/18 00:32:17;;;;;;;7.00;4.72;;;;;;;;;;4687420;30;20072;-82
2021/07/18 00:34:42;;;;;;;6.30;4.30;;;;;;;;;;4679389;30;20100;-81
2021/07/18 00:37:07;;;;;;;7.00;4.28;;;;;;;;;;4691569;30;20064;-81
2021/07/18 00:39:33;;;;;;;6.38;4.40;;;;;;;;;;4694482;30;20491;-82
2021/07/18 00:41:58;;;;;;;7.28;4.15;;;;;;;;;;4704722;30;20042;-82
2021/07/18 00:44:24;;;;;;;7.68;4.97;;;;;;;;;;4696978;30;20033;-82
2021/07/18 00:46:49;;;;;;;5.63;3.95;;;;;;;;;;4696614;30;20079;-81
2021/07/18 00:49:15;;;;;;;7.00;4.95;;;;;;;;;;4694975;30;20190;-82
2021/07/18 00:51:40;;;;;;;6.47;4.32;;;;;;;;;;4686595;30;20476;-82
2021/07/18 00:54:06;;;;;;;6.20;4.40;;;;;;;;;;4686916;30;20095;-82
2021/07/18 00:56:32;;;;;;;7.18;5.20;;;;;;;;;;4689843;30;20042;-82
2021/07/18 00:58:58;;;;;;;8.23;5.28;;;;;;;;;;4676865;30;20052;-82
2021/07/18 01:01:25;;;;;;;6.65;4.90;;;;;;;;;;4688660;30;20116;-82
2021/07/18 01:03:50;;;;;;;6.22;4.50;;;;;;;;;;4686317;30;20042;-82
2021/07/18 01:06:16;;;;;;;6.68;4.70;;;;;;;;;;4699314;30;20046;-81
2021/07/18 01:08:41;;;;;;;7.00;5.57;;;;;;;;;;4692886;30;20057;-82
2021/07/18 01:11:06;;;;;;;6.88;4.53;;;;;;;;;;4690458;30;20384;-82
2021/07/18 01:13:32;;;;;;;6.00;3.92;;;;;;;;;;4683791;30;20128;-82
2021/07/18 01:15:57;;;;;;;6.78;4.25;;;;;;;;;;4697515;30;20057;-82
2021/07/18 01:18:23;;;;;;;6.75;4.32;;;;;;;;;;4692656;30;20527;-81
2021/07/18 01:20:50;;;;;;;5.47;4.07;;;;;;;;;;4684072;30;20606;-82
2021/07/18 01:23:15;;;;;;;5.57;3.63;;;;;;;;;;4692880;30;20036;-82
2021/07/18 01:25:41;;;;;;;7.60;3.53;;;;;;;;;;4691071;30;20038;-81
2021/07/18 01:28:09;;;;;;;7.32;3.80;;;;;;;;;;4695909;30;20065;-82
2021/07/18 01:30:35;;;;;;;5.03;3.50;;;;;;;;;;4694069;30;20033;-82
2021/07/18 01:33:01;;;;;;;5.07;3.47;;;;;;;;;;4689155;30;20045;-82
2021/07/18 01:35:27;;;;;;;5.15;3.60;;;;;;;;;;4691202;30;20479;-82
2021/07/18 01:37:53;;;;;;;6.95;3.72;;;;;;;;;;4681359;30;20038;-82
2021/07/18 01:40:18;;;;;;;6.18;3.70;;;;;;;;;;4682502;30;20045;-82
2021/07/18 01:42:44;;;;;;;5.10;3.30;;;;;;;;;;4683837;30;20496;-82
2021/07/18 01:45:10;;;;;;;5.03;3.30;;;;;;;;;;4682731;30;20037;-82
2021/07/18 01:47:36;;;;;;;9.10;3.50;;;;;;;;;;4681016;30;20045;-82
2021/07/18 01:50:04;;;;;;;6.15;3.35;;;;;;;;;;4688080;30;20101;-82
2021/07/18 01:52:30;;;;;;;4.95;3.25;;;;;;;;;;4688750;30;20037;-82
2021/07/18 01:54:55;;;;;;;5.38;3.67;;;;;;;;;;4685433;30;20393;-82
2021/07/18 01:57:21;;;;;;;4.65;3.45;;;;;;;;;;4692864;30;20042;-82
2021/07/18 01:59:47;;;;;;;4.93;3.53;;;;;;;;;;4675439;30;20761;-82
2021/07/18 02:02:17;;;;;;;5.13;3.50;;;;;;;;;;4693045;30;20042;-82
2021/07/18 02:04:42;;;;;;;4.47;3.30;;;;;;;;;;4681433;30;20038;-82
2021/07/18 02:07:08;;;;;;;6.88;3.58;;;;;;;;;;4695902;30;20051;-82
2021/07/18 02:09:37;;;;;;;5.90;3.58;;;;;;;;;;4696833;30;20120;-82
2021/07/18 02:12:06;;;;;;;5.13;3.17;;;;;;;;;;4682702;30;20045;-82
2021/07/18 02:14:32;;;;;;;5.45;3.40;;;;;;;;;;4706727;30;20057;-82
2021/07/18 02:16:58;;;;;;;5.25;3.70;;;;;;;;;;4685876;30;20038;-81
2021/07/18 02:19:30;;;;;;;5.40;3.63;;;;;;;;;;4704548;30;20037;-81
2021/07/18 02:21:57;;;;;;;5.65;3.90;;;;;;;;;;4694235;30;20040;-82
2021/07/18 02:24:22;;;;;;;7.03;3.92;;;;;;;;;;4692542;30;20052;-81
2021/07/18 02:26:48;;;;;;;5.72;3.72;;;;;;;;;;4693844;30;20092;-81
2021/07/18 02:29:13;;;;;;;6.47;3.72;;;;;;;;;;4690558;30;20064;-81
2021/07/18 02:31:40;;;;;;;8.85;4.00;;;;;;;;;;4713040;30;20068;-82
2021/07/18 02:34:06;;;;;;;6.40;3.92;;;;;;;;;;4688265;30;20057;-82
2021/07/18 02:36:32;;;;;;;4.63;3.38;;;;;;;;;;4693774;30;20115;-82
2021/07/18 02:38:58;;;;;;;5.90;4.20;;;;;;;;;;4712673;30;20073;-82
2021/07/18 02:41:26;;;;;;;5.75;3.70;;;;;;;;;;4703550;30;20060;-82
2021/07/18 02:43:52;;;;;;;5.63;3.33;;;;;;;;;;4696918;30;20045;-82
2021/07/18 02:46:18;;;;;;;6.20;3.83;;;;;;;;;;4698265;30;20041;-82
2021/07/18 02:48:43;;;;;;;6.05;3.88;;;;;;;;;;4695303;30;20041;-82
2021/07/18 02:51:09;;;;;;;6.13;3.60;;;;;;;;;;4710960;30;20029;-82
2021/07/18 02:53:34;;;;;;;5.40;3.70;;;;;;;;;;4709183;30;20115;-82
2021/07/18 02:56:00;;;;;;;5.35;3.60;;;;;;;;;;4686916;30;20041;-82
2021/07/18 02:58:25;;;;;;;8.00;4.20;;;;;;;;;;4699842;30;20467;-82
2021/07/18 03:00:51;;;;;;;5.13;3.80;;;;;;;;;;4713136;30;20107;-82
2021/07/18 03:03:18;;;;;;;5.18;3.83;;;;;;;;;;4703270;30;20063;-82
2021/07/18 03:05:44;;;;;;;5.35;3.75;;;;;;;;;;4706659;30;20042;-82
2021/07/18 03:08:09;;;;;;;6.32;4.18;;;;;;;;;;4698638;30;20060;-82
2021/07/18 03:10:35;;;;;;;5.68;3.67;;;;;;;;;;4698832;30;20041;-82
2021/07/18 03:13:00;;;;;;;5.65;4.10;;;;;;;;;;4708520;30;20082;-82
2021/07/18 03:15:26;;;;;;;5.60;3.80;;;;;;;;;;4707696;30;20037;-82
2021/07/18 03:17:51;;;;;;;7.35;3.92;;;;;;;;;;4697185;30;20044;-82
2021/07/18 03:20:19;;;;;;;5.95;3.50;;;;;;;;;;4713373;30;20511;-82
2021/07/18 03:22:46;;;;;;;4.43;3.30;;;;;;;;;;4685925;30;20490;-82
2021/07/18 03:25:12;;;;;;;5.00;3.40;;;;;;;;;;4704073;30;20445;-82
2021/07/18 03:27:38;;;;;;;5.53;3.53;;;;;;;;;;4713337;30;20037;-82
2021/07/18 03:30:06;;;;;;;5.13;3.22;;;;;;;;;;4691244;30;20479;-82
2021/07/18 03:32:33;;;;;;;5.43;3.65;;;;;;;;;;4702772;30;20033;-82
2021/07/18 03:34:58;;;;;;;5.15;3.47;;;;;;;;;;4696575;30;20029;-82
2021/07/18 03:37:24;;;;;;;5.57;3.65;;;;;;;;;;4688382;30;20049;-82
2021/07/18 03:39:49;;;;;;;5.78;3.60;;;;;;;;;;4693629;30;20059;-82
2021/07/18 03:42:14;;;;;;;5.15;3.65;;;;;;;;;;4686617;30;20036;-82
2021/07/18 03:44:40;;;;;;;6.45;4.45;;;;;;;;;;4707590;30;20513;-82
2021/07/18 03:47:06;;;;;;;5.93;4.43;;;;;;;;;;4686354;30;20033;-82
2021/07/18 03:49:32;;;;;;;6.85;4.50;;;;;;;;;;4694156;30;20161;-82
2021/07/18 03:51:59;;;;;;;6.13;3.88;;;;;;;;;;4683897;30;20522;-82
2021/07/18 03:54:25;;;;;;;8.70;3.88;;;;;;;;;;4706883;30;20037;-82
2021/07/18 03:56:50;;;;;;;5.68;3.78;;;;;;;;;;4694588;30;20414;-82
2021/07/18 03:59:16;;;;;;;6.65;3.17;;;;;;;;;;4693078;30;20487;-82
2021/07/18 04:01:41;;;;;;;5.93;3.30;;;;;;;;;;4700221;30;20041;-82
2021/07/18 04:04:07;;;;;;;5.55;3.50;;;;;;;;;;4699308;30;20033;-82
2021/07/18 04:06:32;;;;;;;5.40;3.95;;;;;;;;;;4690265;30;20106;-82
2021/07/18 04:08:57;;;;;;;6.43;4.20;;;;;;;;;;4701981;30;20063;-82
2021/07/18 04:11:23;;;;;;;5.93;3.65;;;;;;;;;;4689034;30;20755;-82
2021/07/18 04:13:48;;;;;;;5.05;3.70;;;;;;;;;;4697584;30;20070;-82
2021/07/18 04:16:14;;;;;;;6.63;3.60;;;;;;;;;;4711710;30;20770;-82
2021/07/18 04:18:39;;;;;;;6.43;3.65;;;;;;;;;;4693634;30;20033;-82
2021/07/18 04:21:04;;;;;;;5.28;3.60;;;;;;;;;;4689446;30;20033;-82
2021/07/18 04:23:30;;;;;;;4.72;3.25;;;;;;;;;;4716745;30;20100;-82
2021/07/18 04:25:55;;;;;;;3.88;2.85;;;;;;;;;;4692832;30;20128;-82
2021/07/18 04:28:21;;;;;;;4.55;3.10;;;;;;;;;;4713596;30;20041;-82
2021/07/18 04:30:46;;;;;;;4.22;3.22;;;;;;;;;;4693267;30;20092;-82
2021/07/18 04:33:12;;;;;;;5.82;3.25;;;;;;;;;;4710007;30;20038;-82
2021/07/18 04:35:37;;;;;;;4.70;3.28;;;;;;;;;;4687063;30;20439;-82
2021/07/18 04:38:03;;;;;;;4.90;3.50;;;;;;;;;;4683344;30;20110;-82
2021/07/18 04:40:30;;;;;;;6.30;4.10;;;;;;;;;;4695056;30;20033;-82
2021/07/18 04:42:55;;;;;;;6.13;3.80;;;;;;;;;;4698129;30;20033;-82
2021/07/18 04:45:21;;;;;;;6.70;4.63;;;;;;;;;;4699754;30;20091;-82
2021/07/18 04:47:48;;;;;;;6.15;5.00;;;;;;;;;;4695912;30;20091;-82
2021/07/18 04:50:16;;;;;;;6.93;5.05;;;;;;;;;;4686715;30;20025;-82
2021/07/18 04:52:42;;;;;;;6.65;5.10;;;;;;;;;;4698774;30;20032;-82
2021/07/18 04:55:08;;;;;;;7.15;4.80;;;;;;;;;;4687903;30;20099;-82
2021/07/18 04:57:34;;;;;;;5.90;4.60;;;;;;;;;;4696457;30;20038;-82
2021/07/18 05:00:00;;;;;;;8.60;5.13;;;;;;;;;;4687549;30;20040;-82
2021/07/18 05:02:25;;;;;;;7.72;5.70;;;;;;;;;;4699837;30;20041;-82
2021/07/18 05:04:52;;;;;;;8.07;6.00;;;;;;;;;;4695837;30;20045;-82
2021/07/18 05:07:18;;;;;;;8.73;6.03;;;;;;;;;;4717496;30;20068;-82
2021/07/18 05:09:43;;;;;;;8.55;5.88;;;;;;;;;;4686867;30;20069;-82
2021/07/18 05:12:08;;;;;;;9.75;5.72;;;;;;;;;;4688333;30;20039;-82
2021/07/18 05:14:34;;;;;;;10.27;7.55;;;;;;;;;;4710479;30;20061;-82
2021/07/18 05:16:59;;;;;;;10.70;6.95;;;;;;;;;;4686641;30;20507;-82
2021/07/18 05:19:24;;;;;;;10.60;7.15;;;;;;;;;;4694351;30;20052;-82
2021/07/18 05:21:50;;;;;;;11.05;7.07;;;;;;;;;;4686642;30;20067;-82
2021/07/18 05:24:15;;;;;;;10.95;6.85;;;;;;;;;;4666969;30;20029;-82
2021/07/18 05:26:41;;;;;;;9.80;6.38;;;;;;;;;;4678291;30;20136;-82
2021/07/18 05:29:06;;;;;;;10.93;7.78;;;;;;;;;;4686972;30;20033;-82
2021/07/18 05:31:32;;;;;;;10.65;8.00;;;;;;;;;;4699953;30;20036;-82
2021/07/18 05:33:57;;;;;;;12.00;8.15;;;;;;;;;;4688625;30;20049;-82
2021/07/18 05:36:23;;;;;;;10.23;7.47;;;;;;;;;;4687816;30;20128;-82
2021/07/18 05:38:48;;;;;;;11.18;8.20;;;;;;;;;;4686394;30;20119;-82
2021/07/18 05:41:13;;;;;;;11.30;7.85;;;;;;;;;;4687759;30;20040;-82
2021/07/18 05:43:39;;;;;;;12.15;8.02;;;;;;;;;;4707624;30;20046;-82
2021/07/18 05:46:04;;;;;;;12.50;8.20;;;;;;;;;;4688802;30;20048;-81
2021/07/18 05:48:31;;;;;;;12.85;8.30;;;;;;;;;;4695515;30;20099;-82
2021/07/18 05:50:56;;;;;;;13.43;8.30;;;;;;;;;;4686295;30;20047;-82
2021/07/18 05:53:22;;;;;;;12.73;8.95;;;;;;;;;;4686766;30;20132;-82
2021/07/18 05:55:47;;;;;;;11.52;8.45;;;;;;;;;;4687180;30;20033;-81
2021/07/18 05:58:13;;;;;;;11.77;8.75;;;;;;;;;;4706269;30;20037;-82
2021/07/18 06:00:40;;;;;;;12.15;8.65;;;;;;;;;;4689145;30;20111;-82
2021/07/18 06:03:07;;;;;;;11.23;8.65;;;;;;;;;;4699766;30;20057;-82
2021/07/18 06:05:32;;;;;;;11.73;8.85;;;;;;;;;;4692571;30;20037;-82
2021/07/18 06:07:57;;;;;;;12.57;8.55;;;;;;;;;;4692178;30;20506;-82
2021/07/18 06:10:23;;;;;;;12.68;8.27;;;;;;;;;;4687452;30;20037;-82
2021/07/18 06:12:48;;;;;;;10.80;8.45;;;;;;;;;;4692771;30;20085;-81
2021/07/18 06:15:15;;;;;;;11.98;8.50;;;;;;;;;;4699372;30;20103;-82
2021/07/18 06:17:40;;;;;;;12.15;8.30;;;;;;;;;;4681842;30;20136;-82
2021/07/18 06:20:09;;;;;;;13.63;8.32;;;;;;;;;;4705493;30;20108;-82
2021/07/18 06:22:35;;;;;;;10.93;7.57;;;;;;;;;;4689283;30;20190;-82
2021/07/18 06:25:03;;;;;;;9.98;7.22;;;;;;;;;;4702198;30;20083;-82
2021/07/18 06:27:28;;;;;;;10.93;7.85;;;;;;;;;;4700560;30;20028;-82
2021/07/18 06:29:54;;;;;;;12.20;7.63;;;;;;;;;;4683974;30;20049;-82
2021/07/18 06:32:20;;;;;;;9.82;7.07;;;;;;;;;;4692054;30;20029;-81
2021/07/18 06:34:47;;;;;;;12.18;7.65;;;;;;;;;;4707306;30;20036;-82
2021/07/18 06:37:12;;;;;;;10.20;6.97;;;;;;;;;;4695363;30;20514;-82
2021/07/18 06:39:38;;;;;;;9.88;6.35;;;;;;;;;;4680354;30;20045;-82
2021/07/18 06:42:03;;;;;;;7.85;5.55;;;;;;;;;;4683513;30;20033;-82
2021/07/18 06:44:29;;;;;;;6.82;4.80;;;;;;;;;;4694188;30;20083;-82
2021/07/18 06:46:54;;;;;;;8.07;5.28;;;;;;;;;;4696814;30;20519;-82
2021/07/18 06:49:20;;;;;;;9.27;5.68;;;;;;;;;;4696666;30;20041;-82
2021/07/18 06:51:45;;;;;;;8.70;5.13;;;;;;;;;;4681181;30;20068;-82
2021/07/18 06:54:10;;;;;;;9.60;5.20;;;;;;;;;;4687278;30;20548;-81
2021/07/18 06:56:36;;;;;;;8.65;5.05;;;;;;;;;;4691790;30;20068;-82
2021/07/18 06:59:01;;;;;;;6.97;5.05;;;;;;;;;;4687540;30;20124;-81
2021/07/18 07:01:27;;;;;;;9.15;5.47;;;;;;;;;;4689677;30;20608;-82
2021/07/18 07:03:53;;;;;;;7.70;4.78;;;;;;;;;;4689522;30;20060;-82
2021/07/18 07:06:18;;;;;;;7.32;4.88;;;;;;;;;;4705588;30;20403;-81
2021/07/18 07:08:44;;;;;;;5.97;4.65;;;;;;;;;;4694997;30;20029;-81
2021/07/18 07:11:09;;;;;;;8.48;5.30;;;;;;;;;;4701601;30;20037;-82
2021/07/18 07:13:35;;;;;;;7.13;4.97;;;;;;;;;;4693264;30;20200;-82
2021/07/18 07:16:00;;;;;;;7.97;5.10;;;;;;;;;;4686791;30;20064;-82
2021/07/18 07:18:26;;;;;;;6.30;4.28;;;;;;;;;;4701029;30;20392;-81
2021/07/18 07:20:51;;;;;;;7.20;4.40;;;;;;;;;;4695483;30;20132;-82
2021/07/18 07:23:17;;;;;;;7.70;4.25;;;;;;;;;;4689812;30;20053;-82
2021/07/18 07:25:42;;;;;;;6.40;4.43;;;;;;;;;;4685906;30;20044;-82
2021/07/18 07:28:07;;;;;;;6.97;3.92;;;;;;;;;;4711640;30;20041;-82
2021/07/18 07:30:35;;;;;;;6.80;4.10;;;;;;;;;;4702398;30;20041;-82
2021/07/18 07:33:00;;;;;;;7.00;3.88;;;;;;;;;;4723887;30;20423;-82
2021/07/18 07:35:26;;;;;;;6.97;3.88;;;;;;;;;;4702295;30;20072;-82
2021/07/18 07:37:51;;;;;;;7.00;3.95;;;;;;;;;;4693837;30;20037;-81
2021/07/18 07:40:18;;;;;;;8.00;4.18;;;;;;;;;;4702510;30;20184;-82
2021/07/18 07:42:45;;;;;;;5.50;3.75;;;;;;;;;;4707044;30;20029;-82
2021/07/18 07:45:11;;;;;;;6.43;3.80;;;;;;;;;;4695297;30;20056;-82
2021/07/18 07:47:38;;;;;;;8.80;3.83;;;;;;;;;;4693157;30;20590;-82
2021/07/18 07:50:05;;;;;;;4.70;3.60;;;;;;;;;;4717594;30;20032;-82
2021/07/18 07:52:32;;;;;;;6.95;3.47;;;;;;;;;;4695132;30;20044;-82
2021/07/18 07:54:57;;;;;;;6.50;3.17;;;;;;;;;;4708529;30;20043;-82
2021/07/18 07:57:23;;;;;;;5.15;2.53;;;;;;;;;;4718536;30;20041;-82
2021/07/18 07:59:48;;;;;;;4.78;2.42;;;;;;;;;;4685838;30;20041;-81
2021/07/18 08:02:14;;;;;;;6.07;2.63;;;;;;;;;;4690214;30;20146;-80
2021/07/18 08:04:39;;;;;;;4.32;2.25;;;;;;;;;;4701715;30;20041;-81
2021/07/18 08:07:04;;;;;;;5.47;2.38;;;;;;;;;;4688375;30;20052;-80
2021/07/18 08:09:30;;;;;;;5.43;2.88;;;;;;;;;;4694116;30;20116;-81
2021/07/18 08:11:56;;;;;;;5.00;2.50;;;;;;;;;;4697002;30;20156;-80
2021/07/18 08:14:21;;;;;;;5.22;2.83;;;;;;;;;;4681120;30;20081;-80
2021/07/18 08:16:47;;;;;;;4.07;2.60;;;;;;;;;;4694571;30;20499;-80
2021/07/18 08:19:13;;;;;;;5.60;2.80;;;;;;;;;;4680264;30;20080;-80
2021/07/18 08:21:39;;;;;;;5.65;2.90;;;;;;;;;;4695625;30;20097;-80
2021/07/18 08:24:04;;;;;;;6.95;2.92;;;;;;;;;;4713929;30;20037;-81
2021/07/18 08:26:29;;;;;;;6.15;2.90;;;;;;;;;;4704508;30;20052;-80
2021/07/18 08:28:55;;;;;;;5.32;2.67;;;;;;;;;;4706482;30;20048;-80
2021/07/18 08:31:20;;;;;;;5.15;2.67;;;;;;;;;;4687755;30;20049;-80
2021/07/18 08:33:46;;;;;;;4.43;2.50;;;;;;;;;;4690944;30;20057;-80
2021/07/18 08:36:12;;;;;;;4.88;2.70;;;;;;;;;;4677657;30;20064;-80
2021/07/18 08:38:38;;;;;;;5.38;3.00;;;;;;;;;;4688519;30;20037;-80
2021/07/18 08:41:03;;;;;;;6.88;2.90;;;;;;;;;;4688166;30;20041;-81
2021/07/18 08:43:30;;;;;;;6.03;2.63;;;;;;;;;;4687056;30;20147;-80
2021/07/18 08:45:56;;;;;;;7.68;2.90;;;;;;;;;;4685470;30;20048;-81
2021/07/18 08:48:21;;;;;;;7.50;2.53;;;;;;;;;;4681964;30;20045;-80
2021/07/18 08:50:48;;;;;;;7.47;2.65;;;;;;;;;;4672510;30;20045;-79
2021/07/18 08:53:14;;;;;;;5.68;2.75;;;;;;;;;;4691895;30;20045;-80
2021/07/18 08:55:40;;;;;;;7.28;3.22;;;;;;;;;;4701495;30;20048;-81
2021/07/18 08:58:05;;;;;;;6.28;2.90;;;;;;;;;;4702954;30;20054;-80
2021/07/18 09:00:31;;;;;;;6.72;2.83;;;;;;;;;;4685976;30;20491;-80
2021/07/18 09:02:56;;;;;;;5.97;2.90;;;;;;;;;;4700412;30;20703;-80
2021/07/18 09:05:22;;;;;;;5.70;2.97;;;;;;;;;;4677084;30;20075;-80
2021/07/18 09:07:57;;;;;;;6.15;3.25;;;;;;;;;;4700434;30;20045;-80
2021/07/18 09:10:25;;;;;;;8.68;3.00;;;;;;;;;;4680941;30;20191;-80
2021/07/18 09:13:04;;;;;;;5.80;2.80;;;;;;;;;;4682681;30;20050;-80
2021/07/18 09:15:41;;;;;;;9.13;3.20;;;;;;;;;;4707651;30;20049;-80
2021/07/18 09:18:09;;;;;;;9.60;3.10;;;;;;;;;;4686507;30;20310;-80
2021/07/18 09:20:39;;;;;;;7.15;2.72;;;;;;;;;;4687659;30;20033;-80
2021/07/18 09:23:10;;;;;;;6.50;2.60;;;;;;;;;;4682583;30;20754;-81
2021/07/18 09:25:36;;;;;;;5.85;3.10;;;;;;;;;;4685794;30;20610;-80
2021/07/18 09:28:17;;;;;;;6.07;3.03;;;;;;;;;;4687014;30;20041;-80
2021/07/18 09:30:44;;;;;;;9.13;3.38;;;;;;;;;;4706446;30;20108;-80
2021/07/18 09:33:22;;;;;;;7.40;2.92;;;;;;;;;;4687882;30;20044;-80
2021/07/18 09:35:48;;;;;;;6.93;2.90;;;;;;;;;;4701295;30;20037;-80
2021/07/18 09:38:21;;;;;;;6.25;2.65;;;;;;;;;;4683394;30;20037;-80
2021/07/18 09:40:59;;;;;;;6.05;3.00;;;;;;;;;;4685513;30;20135;-80
2021/07/18 09:43:29;;;;;;;9.43;3.20;;;;;;;;;;4692560;30;20049;-80
2021/07/18 09:46:01;;;;;;;6.22;2.70;;;;;;;;;;4700576;30;20036;-80
2021/07/18 09:48:44;;;;;;;7.07;3.00;;;;;;;;;;4705172;30;20062;-80
2021/07/18 09:51:12;;;;;;;6.65;2.85;;;;;;;;;;4688533;30;20429;-79
2021/07/18 09:53:39;;;;;;;5.40;2.80;;;;;;;;;;4702030;30;20037;-79
2021/07/18 09:56:07;;;;;;;5.32;2.60;;;;;;;;;;4683630;30;20399;-80
2021/07/18 09:58:35;;;;;;;5.50;2.55;;;;;;;;;;4703412;30;20437;-81
2021/07/18 10:01:03;;;;;;;5.68;2.50;;;;;;;;;;4704916;30;20048;-80
2021/07/18 10:03:28;;;;;;;4.65;2.35;;;;;;;;;;4687957;30;20045;-79
2021/07/18 10:06:07;;;;;;;7.78;2.38;;;;;;;;;;4688224;30;20487;-79
2021/07/18 10:08:34;;;;;;;8.80;2.50;;;;;;;;;;4688508;30;20479;-80
2021/07/18 10:11:00;;;;;;;4.93;2.40;;;;;;;;;;4693591;30;20654;-79
2021/07/18 10:13:26;;;;;;;5.03;2.30;;;;;;;;;;4706130;30;20053;-80
2021/07/18 10:15:51;;;;;;;5.10;1.90;;;;;;;;;;4710072;30;20444;-80
2021/07/18 10:18:18;;;;;;;5.13;2.03;;;;;;;;;;4701181;30;20029;-80
2021/07/18 10:20:44;;;;;;;5.32;2.05;;;;;;;;;;4712614;30;20056;-80
2021/07/18 10:23:10;;;;;;;6.20;2.13;;;;;;;;;;4709059;30;20491;-81
2021/07/18 10:25:36;;;;;;;5.20;1.90;;;;;;;;;;4707926;30;20056;-81
2021/07/18 10:28:03;;;;;;;4.80;2.08;;;;;;;;;;4711520;30;20037;-81
2021/07/18 10:30:31;;;;;;;6.05;2.10;;;;;;;;;;4716772;30;20037;-81
2021/07/18 10:32:59;;;;;;;4.60;2.20;;;;;;;;;;4698114;30;20038;-82
2021/07/18 10:35:25;;;;;;;3.75;1.98;;;;;;;;;;4684245;30;20041;-81
2021/07/18 10:37:51;;;;;;;4.63;2.30;;;;;;;;;;4685713;30;20132;-81
2021/07/18 10:40:25;;;;;;;4.65;2.30;;;;;;;;;;4693053;30;20099;-81
2021/07/18 10:42:51;;;;;;;6.30;2.10;;;;;;;;;;4697960;30;20438;-81
2021/07/18 10:45:25;;;;;;;5.50;2.35;;;;;;;;;;4686532;30;20049;-81
2021/07/18 10:47:59;;;;;;;7.78;2.53;;;;;;;;;;4689262;30;20033;-81
2021/07/18 10:50:46;;;;;;;4.55;2.30;;;;;;;;;;4704911;30;20029;-81
2021/07/18 10:53:19;;;;;;;3.38;1.92;;;;;;;;;;4692199;30;21450;-81
2021/07/18 10:55:45;;;;;;;5.22;2.20;;;;;;;;;;4707855;30;20106;-81
2021/07/18 10:58:11;;;;;;;4.47;2.13;;;;;;;;;;4709168;30;20049;-81
2021/07/18 11:00:48;;;;;;;5.90;2.30;;;;;;;;;;4711052;30;20049;-80
2021/07/18 11:03:13;;;;;;;4.00;2.20;;;;;;;;;;4693874;30;20123;-81
2021/07/18 11:05:43;;;;;;;5.18;1.90;;;;;;;;;;4683440;30;20168;-81
2021/07/18 11:08:10;;;;;;;5.03;2.10;;;;;;;;;;4688969;30;20121;-80
2021/07/18 11:10:54;;;;;;;3.95;2.20;;;;;;;;;;4691272;30;20044;-80
2021/07/18 11:13:20;;;;;;;5.18;1.92;;;;;;;;;;4686856;30;20071;-81
2021/07/18 11:15:45;;;;;;;5.03;2.08;;;;;;;;;;4687162;30;20045;-82
2021/07/18 11:18:18;;;;;;;3.75;1.95;;;;;;;;;;4680955;30;20040;-82
2021/07/18 11:20:54;;;;;;;5.57;2.42;;;;;;;;;;4684663;30;20079;-81
2021/07/18 11:23:28;;;;;;;7.78;2.22;;;;;;;;;;4709184;30;20127;-81
2021/07/18 11:26:13;;;;;;;3.58;2.15;;;;;;;;;;4704260;30;20048;-81
2021/07/18 11:31:12;;;;;;;5.25;2.30;;;;;;;;;;4702574;30;20033;-81
2021/07/18 11:33:40;;;;;;;3.75;2.20;;;;;;;;;;4702765;30;20045;-81
2021/07/18 11:36:07;;;;;;;3.28;2.30;;;;;;;;;;4703536;30;20095;-81
2021/07/18 11:38:33;;;;;;;4.07;2.10;;;;;;;;;;4680028;30;20048;-80
2021/07/18 11:40:58;;;;;;;3.05;2.08;;;;;;;;;;4675948;30;20041;-80
2021/07/18 11:43:24;;;;;;;6.38;2.30;;;;;;;;;;4673803;30;20574;-81
2021/07/18 11:45:53;;;;;;;3.90;2.10;;;;;;;;;;4680683;30;20109;-81
2021/07/18 11:48:22;;;;;;;3.17;2.17;;;;;;;;;;4685592;30;20045;-81
2021/07/18 11:50:47;;;;;;;3.28;2.03;;;;;;;;;;4669478;30;20428;-80
2021/07/18 11:53:17;;;;;;;3.97;2.20;;;;;;;;;;4683866;30;20068;-80
2021/07/18 11:55:42;;;;;;;4.82;2.17;;;;;;;;;;4691094;30;20065;-79
2021/07/18 11:58:07;;;;;;;3.78;2.08;;;;;;;;;;4685207;30;20084;-80
2021/07/18 12:00:33;;;;;;;4.55;2.30;;;;;;;;;;4680299;30;20038;-81
2021/07/18 12:03:01;;;;;;;4.53;2.10;;;;;;;;;;4703713;30;20136;-80
2021/07/18 12:05:27;;;;;;;5.65;2.00;;;;;;;;;;4701636;30;20498;-80
2021/07/18 12:08:05;;;;;;;4.68;2.13;;;;;;;;;;4687861;30;20041;-81
2021/07/18 12:10:31;;;;;;;5.03;2.25;;;;;;;;;;4681969;30;20080;-80
2021/07/18 12:12:56;;;;;;;3.47;1.95;;;;;;;;;;4685441;30;20490;-79
2021/07/18 12:15:22;;;;;;;5.80;1.80;;;;;;;;;;4684464;30;20069;-81
2021/07/18 12:18:03;;;;;;;4.43;2.00;;;;;;;;;;4675998;30;20037;-80
2021/07/18 12:20:29;;;;;;;6.10;2.25;;;;;;;;;;4699328;30;20620;-80
2021/07/18 12:22:54;;;;;;;3.95;2.30;;;;;;;;;;4685342;30;20057;-80
2021/07/18 12:25:19;;;;;;;2.92;1.90;;;;;;;;;;4700876;30;20064;-79
2021/07/18 12:27:45;;;;;;;3.95;1.95;;;;;;;;;;4708057;30;20562;-80
2021/07/18 12:30:10;;;;;;;4.63;2.03;;;;;;;;;;4679552;30;20446;-79
2021/07/18 12:32:36;;;;;;;4.43;1.98;;;;;;;;;;4688301;30;20041;-80
2021/07/18 12:35:03;;;;;;;4.63;2.22;;;;;;;;;;4708094;30;20042;-79
2021/07/18 12:37:32;;;;;;;5.40;2.13;;;;;;;;;;4705311;30;20037;-79
2021/07/18 12:40:00;;;;;;;3.92;2.13;;;;;;;;;;4689334;30;20416;-79
2021/07/18 12:42:27;;;;;;;5.68;1.75;;;;;;;;;;4693746;30;20024;-79
2021/07/18 12:44:58;;;;;;;4.85;2.03;;;;;;;;;;4689309;30;20033;-78
2021/07/18 12:47:40;;;;;;;5.78;2.20;;;;;;;;;;4701713;30;20037;-79
2021/07/18 12:50:24;;;;;;;5.97;2.25;;;;;;;;;;4690605;30;20048;-78
2021/07/18 12:52:58;;;;;;;3.65;2.00;;;;;;;;;;4707477;30;20094;-79
2021/07/18 12:55:28;;;;;;;3.50;2.20;;;;;;;;;;4700442;30;21932;-79
2021/07/18 12:57:54;;;;;;;4.28;2.13;;;;;;;;;;4668783;30;21112;-78
2021/07/18 13:00:25;;;;;;;4.85;2.40;;;;;;;;;;4667230;30;20042;-77
2021/07/18 13:03:07;;;;;;;4.13;2.20;;;;;;;;;;4666361;30;20042;-78
2021/07/18 13:05:33;;;;;;;5.35;2.38;;;;;;;;;;4669647;30;20034;-78
2021/07/18 13:07:58;;;;;;;4.45;1.95;;;;;;;;;;4665865;30;20135;-78
2021/07/18 13:10:23;;;;;;;3.55;2.20;;;;;;;;;;4684295;30;20120;-78
2021/07/18 13:13:01;;;;;;;4.97;2.03;;;;;;;;;;4683681;30;20044;-77
2021/07/18 13:15:27;;;;;;;4.32;2.20;;;;;;;;;;4669744;30;20050;-78
2021/07/18 13:17:57;;;;;;;3.97;2.20;;;;;;;;;;4683918;30;20038;-78
2021/07/18 13:20:25;;;;;;;6.10;2.55;;;;;;;;;;4688480;30;20041;-78
2021/07/18 13:22:52;;;;;;;3.17;1.85;;;;;;;;;;4687827;30;20135;-78
2021/07/18 13:25:24;;;;;;;4.63;2.05;;;;;;;;;;4677300;30;20048;-78
2021/07/18 13:27:55;;;;;;;4.53;2.30;;;;;;;;;;4689097;30;20041;-78
2021/07/18 13:30:23;;;;;;;4.20;2.17;;;;;;;;;;4685382;30;20383;-78
2021/07/18 13:32:49;;;;;;;4.97;2.20;;;;;;;;;;4672437;30;20037;-78
2021/07/18 13:35:20;;;;;;;4.20;2.20;;;;;;;;;;4660831;30;20041;-78
2021/07/18 13:37:51;;;;;;;5.00;2.22;;;;;;;;;;4672089;30;20729;-78
2021/07/18 13:40:26;;;;;;;3.08;2.30;;;;;;;;;;4686626;30;20037;-78
2021/07/18 13:43:07;;;;;;;3.85;2.40;;;;;;;;;;4682548;30;20033;-78
2021/07/18 13:45:33;;;;;;;5.47;2.42;;;;;;;;;;4682575;30;20041;-78
2021/07/18 13:47:59;;;;;;;4.82;2.35;;;;;;;;;;4683449;30;20133;-78
2021/07/18 13:50:24;;;;;;;6.20;2.25;;;;;;;;;;4684118;30;20547;-76
2021/07/18 13:52:50;;;;;;;5.13;2.47;;;;;;;;;;4688499;30;20048;-77
2021/07/18 13:55:15;;;;;;;4.22;2.50;;;;;;;;;;4689293;30;20545;-77
2021/07/18 13:57:41;;;;;;;3.90;2.42;;;;;;;;;;4686029;30;20048;-76
2021/07/18 14:00:07;;;;;;;4.10;2.40;;;;;;;;;;4662099;30;20076;-77
2021/07/18 14:02:32;;;;;;;3.78;2.10;;;;;;;;;;4688074;30;20097;-78
2021/07/18 14:04:59;;;;;;;5.63;2.70;;;;;;;;;;4661218;30;20423;-77
2021/07/18 14:07:25;;;;;;;4.05;2.25;;;;;;;;;;4669809;30;20085;-77
2021/07/18 14:09:51;;;;;;;4.47;2.50;;;;;;;;;;4671593;30;20041;-77
2021/07/18 14:12:17;;;;;;;3.60;2.40;;;;;;;;;;4664153;30;20054;-77
2021/07/18 14:14:46;;;;;;;5.05;2.33;;;;;;;;;;4686612;30;20140;-77
2021/07/18 14:17:15;;;;;;;5.53;2.60;;;;;;;;;;4670902;30;20423;-77
2021/07/18 14:19:40;;;;;;;4.45;2.28;;;;;;;;;;4686765;30;20034;-76
2021/07/18 14:22:06;;;;;;;7.43;2.50;;;;;;;;;;4673267;30;20053;-77
2021/07/18 14:24:36;;;;;;;5.28;2.30;;;;;;;;;;4669213;30;20045;-77
2021/07/18 14:27:04;;;;;;;4.57;2.40;;;;;;;;;;4671397;30;20041;-77
2021/07/18 14:29:30;;;;;;;4.65;2.40;;;;;;;;;;4687924;30;20443;-77
2021/07/18 14:31:55;;;;;;;5.25;2.38;;;;;;;;;;4662844;30;20095;-76
2021/07/18 14:34:21;;;;;;;4.68;2.50;;;;;;;;;;4670444;30;20041;-76
2021/07/18 14:36:46;;;;;;;4.07;2.28;;;;;;;;;;4667708;30;20045;-77
2021/07/18 14:39:12;;;;;;;5.45;2.33;;;;;;;;;;4670057;30;20038;-76
2021/07/18 14:41:37;;;;;;;4.00;2.40;;;;;;;;;;4662670;30;20034;-76